createdAt,value
2023-03-26T00:01:46.849Z,7.52
2023-03-26T00:04:14.667Z,7.51
2023-03-26T00:06:42.336Z,7.54
2023-03-26T00:09:13.080Z,7.54
2023-03-26T00:11:41.028Z,7.57
2023-03-26T00:14:09.486Z,7.59
2023-03-26T00:16:38.683Z,7.55
2023-03-26T00:19:06.347Z,7.57
2023-03-26T00:21:33.976Z,7.54
2023-03-26T00:24:04.471Z,7.64
2023-03-26T00:26:32.135Z,7.60
2023-03-26T00:29:00.666Z,7.67
2023-03-26T00:31:28.818Z,7.56
2023-03-26T00:33:57.886Z,7.63
2023-03-26T00:36:26.775Z,7.63
2023-03-26T00:38:55.029Z,7.64
2023-03-26T00:41:25.032Z,7.68
2023-03-26T00:43:56.077Z,7.66
2023-03-26T00:46:24.168Z,7.70
2023-03-26T00:48:51.982Z,7.65
2023-03-26T00:51:22.267Z,7.67
2023-03-26T00:53:51.336Z,7.70
2023-03-26T00:56:20.044Z,7.73
2023-03-26T00:58:49.878Z,7.80
2023-03-26T01:01:20.684Z,7.72
2023-03-26T01:04:04.734Z,7.73
2023-03-26T01:06:41.850Z,7.68
2023-03-26T01:09:15.788Z,7.69
2023-03-26T01:11:43.561Z,7.68
2023-03-26T01:14:12.941Z,7.64
2023-03-26T01:16:45.002Z,7.67
2023-03-26T01:19:20.575Z,7.73
2023-03-26T01:21:50.019Z,7.72
2023-03-26T01:24:19.061Z,7.72
2023-03-26T01:27:11.239Z,7.69
2023-03-26T01:29:46.389Z,7.66
2023-03-26T01:32:34.264Z,7.64
2023-03-26T01:35:15.218Z,7.71
2023-03-26T01:37:58.437Z,7.67
2023-03-26T01:40:31.741Z,7.61
2023-03-26T01:43:08.550Z,7.55
2023-03-26T01:45:39.863Z,7.51
2023-03-26T01:48:08.345Z,7.54
2023-03-26T01:50:36.042Z,7.44
2023-03-26T01:53:03.831Z,7.47
2023-03-26T01:55:43.468Z,7.39
2023-03-26T01:58:20.655Z,7.35
2023-03-26T02:00:56.654Z,7.27
2023-03-26T02:03:31.416Z,7.24
2023-03-26T02:06:08.161Z,7.20
2023-03-26T02:08:41.213Z,7.31
2023-03-26T02:11:13.209Z,7.29
2023-03-26T02:13:42.445Z,7.29
2023-03-26T02:16:14.102Z,7.28
2023-03-26T02:18:42.122Z,7.28
2023-03-26T02:21:13.072Z,7.24
2023-03-26T02:23:46.891Z,7.37
2023-03-26T02:26:18.212Z,7.31
2023-03-26T02:28:46.495Z,7.32
2023-03-26T02:31:16.012Z,7.22
2023-03-26T02:33:47.843Z,7.23
2023-03-26T02:36:16.076Z,7.17
2023-03-26T02:38:43.775Z,7.17
2023-03-26T02:41:11.522Z,7.13
2023-03-26T02:43:40.579Z,7.08
2023-03-26T02:46:08.532Z,7.06
2023-03-26T02:48:36.290Z,7.01
2023-03-26T02:51:04.522Z,7.12
2023-03-26T02:53:32.171Z,7.12
2023-03-26T02:56:01.108Z,7.04
2023-03-26T02:58:30.077Z,7.15
2023-03-26T03:00:59.212Z,7.17
2023-03-26T03:03:28.327Z,7.16
2023-03-26T03:05:56.972Z,7.16
2023-03-26T03:08:28.144Z,7.09
2023-03-26T03:10:59.994Z,7.18
2023-03-26T03:13:28.063Z,7.23
2023-03-26T03:15:56.023Z,7.17
2023-03-26T03:18:25.567Z,7.13
2023-03-26T03:20:53.846Z,7.22
2023-03-26T03:23:21.937Z,7.16
2023-03-26T03:25:52.372Z,7.12
2023-03-26T03:28:20.335Z,7.22
2023-03-26T03:30:48.902Z,7.09
2023-03-26T03:33:19.122Z,7.10
2023-03-26T03:35:48.959Z,7.14
2023-03-26T03:38:17.129Z,7.17
2023-03-26T03:40:45.336Z,7.22
2023-03-26T03:43:13.066Z,7.22
2023-03-26T03:45:40.830Z,7.16
2023-03-26T03:48:08.651Z,7.22
2023-03-26T03:50:36.396Z,7.14
2023-03-26T03:53:06.416Z,7.26
2023-03-26T03:55:34.121Z,7.27
2023-03-26T03:58:01.845Z,7.16
2023-03-26T04:00:30.600Z,7.23
2023-03-26T04:02:58.734Z,7.20
2023-03-26T04:05:26.516Z,7.32
2023-03-26T04:07:54.174Z,7.25
2023-03-26T04:10:23.191Z,7.34
2023-03-26T04:12:50.902Z,7.28
2023-03-26T04:15:18.704Z,7.29
2023-03-26T04:17:46.388Z,7.24
2023-03-26T04:20:15.599Z,7.34
2023-03-26T04:22:43.661Z,7.26
2023-03-26T04:25:11.927Z,7.37
2023-03-26T04:27:43.292Z,7.25
2023-03-26T04:30:15.690Z,7.18
2023-03-26T04:32:44.674Z,7.15
2023-03-26T04:35:16.598Z,7.21
2023-03-26T04:37:45.897Z,7.17
2023-03-26T04:40:16.306Z,7.23
2023-03-26T04:42:46.532Z,7.25
2023-03-26T04:45:15.693Z,7.18
2023-03-26T04:47:43.417Z,7.19
2023-03-26T04:50:12.482Z,7.16
2023-03-26T04:52:41.299Z,7.23
2023-03-26T04:55:23.083Z,7.23
2023-03-26T04:57:54.623Z,7.22
2023-03-26T05:00:22.535Z,7.16
2023-03-26T05:02:51.011Z,7.16
2023-03-26T05:05:18.962Z,7.03
2023-03-26T05:07:46.969Z,7.03
2023-03-26T05:10:16.383Z,7.10
2023-03-26T05:12:44.464Z,7.10
2023-03-26T05:15:15.282Z,7.00
2023-03-26T05:17:43.645Z,7.01
2023-03-26T05:20:20.581Z,7.10
2023-03-26T05:22:49.171Z,7.13
2023-03-26T05:25:17.738Z,7.13
2023-03-26T05:27:45.695Z,7.09
2023-03-26T05:30:17.221Z,7.10
2023-03-26T05:32:45.170Z,7.12
2023-03-26T05:35:12.992Z,7.13
2023-03-26T05:37:40.680Z,7.11
2023-03-26T05:40:11.975Z,7.09
2023-03-26T05:42:40.482Z,7.18
2023-03-26T05:45:10.266Z,7.15
2023-03-26T05:47:39.819Z,7.21
2023-03-26T05:50:09.137Z,7.17
2023-03-26T05:52:36.863Z,7.12
2023-03-26T05:55:04.844Z,7.18
2023-03-26T05:57:33.189Z,7.20
2023-03-26T06:00:00.906Z,7.16
2023-03-26T06:02:29.403Z,7.18
2023-03-26T06:04:58.513Z,7.22
2023-03-26T06:07:27.068Z,7.16
2023-03-26T06:09:54.840Z,7.17
2023-03-26T06:12:22.570Z,7.22
2023-03-26T06:14:50.223Z,7.14
2023-03-26T06:17:17.971Z,7.11
2023-03-26T06:19:45.683Z,7.16
2023-03-26T06:22:14.751Z,7.01
2023-03-26T06:24:42.455Z,7.02
2023-03-26T06:27:10.131Z,6.95
2023-03-26T06:29:37.820Z,6.94
2023-03-26T06:32:18.306Z,6.98
2023-03-26T06:34:47.136Z,6.92
2023-03-26T06:37:16.348Z,6.93
2023-03-26T06:39:44.043Z,6.88
2023-03-26T06:42:11.654Z,6.88
2023-03-26T06:44:39.333Z,6.82
2023-03-26T06:47:07.016Z,6.82
2023-03-26T06:49:34.970Z,6.91
2023-03-26T06:52:03.642Z,6.97
2023-03-26T06:54:32.923Z,6.98
2023-03-26T06:57:00.639Z,7.03
2023-03-26T06:59:28.408Z,7.06
2023-03-26T07:01:56.238Z,7.04
2023-03-26T07:04:23.909Z,7.06
2023-03-26T07:06:51.557Z,7.12
2023-03-26T07:09:19.252Z,7.10
2023-03-26T07:11:48.321Z,6.87
2023-03-26T07:14:16.129Z,6.97
2023-03-26T07:16:43.780Z,6.99
2023-03-26T07:19:11.435Z,6.98
2023-03-26T07:21:39.613Z,7.15
2023-03-26T07:24:10.430Z,7.23
2023-03-26T07:26:51.372Z,7.17
2023-03-26T07:29:33.489Z,7.28
2023-03-26T07:32:10.349Z,7.41
2023-03-26T07:34:48.770Z,7.37
2023-03-26T07:37:26.813Z,7.51
2023-03-26T07:40:00.237Z,7.53
2023-03-26T07:42:47.451Z,7.55
2023-03-26T07:45:25.026Z,7.65
2023-03-26T07:47:53.708Z,7.69
2023-03-26T07:50:23.963Z,7.68
2023-03-26T07:52:52.100Z,7.57
2023-03-26T07:55:20.865Z,7.54
2023-03-26T07:58:02.112Z,7.57
2023-03-26T08:00:36.008Z,7.74
2023-03-26T08:03:38.212Z,7.72
2023-03-26T08:06:14.964Z,7.64
2023-03-26T08:08:51.702Z,7.70
2023-03-26T08:11:29.414Z,7.68
2023-03-26T08:14:07.266Z,7.69
2023-03-26T08:16:41.770Z,7.66
2023-03-26T08:19:28.444Z,7.61
2023-03-26T08:22:02.053Z,7.65
2023-03-26T08:24:40.181Z,7.75
2023-03-26T08:27:18.716Z,7.72
2023-03-26T08:29:55.746Z,7.67
2023-03-26T08:32:26.559Z,7.69
2023-03-26T08:34:54.278Z,7.73
2023-03-26T08:37:21.996Z,7.83
2023-03-26T08:39:49.650Z,7.79
2023-03-26T08:42:57.399Z,7.80
2023-03-26T08:45:44.660Z,7.88
2023-03-26T08:48:44.035Z,7.80
2023-03-26T08:51:34.692Z,7.86
2023-03-26T08:54:20.584Z,7.93
2023-03-26T08:56:56.592Z,7.95
2023-03-26T09:00:05.873Z,7.88
2023-03-26T09:02:58.133Z,7.91
2023-03-26T09:06:03.044Z,7.88
2023-03-26T09:09:19.033Z,7.73
2023-03-26T09:12:19.907Z,7.78
2023-03-26T09:15:23.429Z,7.81
2023-03-26T09:18:25.259Z,7.73
2023-03-26T09:21:09.244Z,7.74
2023-03-26T09:23:58.506Z,7.79
2023-03-26T09:26:30.739Z,7.82
2023-03-26T09:29:36.158Z,7.84
2023-03-26T09:32:21.157Z,7.86
2023-03-26T09:35:13.241Z,7.85
2023-03-26T09:37:58.988Z,7.76
2023-03-26T09:40:37.744Z,7.67
2023-03-26T09:43:33.767Z,7.85
2023-03-26T09:46:14.641Z,7.75
2023-03-26T09:49:00.311Z,7.82
2023-03-26T09:51:41.522Z,7.72
2023-03-26T09:54:34.888Z,7.73
2023-03-26T09:57:11.938Z,7.74
2023-03-26T09:59:58.317Z,7.70
2023-03-26T10:02:47.475Z,7.62
2023-03-26T10:05:31.970Z,7.56
2023-03-26T10:08:12.460Z,7.47
2023-03-26T10:10:49.620Z,7.46
2023-03-26T10:13:29.124Z,7.47
2023-03-26T10:16:06.919Z,7.47
2023-03-26T10:18:49.744Z,7.38
2023-03-26T10:21:28.593Z,7.35
2023-03-26T10:24:07.967Z,7.39
2023-03-26T10:27:10.135Z,7.36
2023-03-26T10:30:04.522Z,7.43
2023-03-26T10:32:37.859Z,7.47
2023-03-26T10:35:22.233Z,7.49
2023-03-26T10:38:02.235Z,7.45
2023-03-26T10:40:34.061Z,7.50
2023-03-26T10:43:31.422Z,7.40
2023-03-26T10:46:31.719Z,7.38
2023-03-26T10:49:27.045Z,7.33
2023-03-26T10:51:58.064Z,7.33
2023-03-26T10:54:40.196Z,7.36
2023-03-26T10:57:16.681Z,7.39
2023-03-26T10:59:45.770Z,7.41
2023-03-26T11:02:30.092Z,7.44
2023-03-26T11:05:19.234Z,7.50
2023-03-26T11:07:53.775Z,7.56
2023-03-26T11:10:30.655Z,7.62
2023-03-26T11:13:05.968Z,7.69
2023-03-26T11:15:41.372Z,7.80
2023-03-26T11:18:16.766Z,7.89
2023-03-26T11:20:49.700Z,7.89
2023-03-26T11:23:34.200Z,7.94
2023-03-26T11:26:09.355Z,7.93
2023-03-26T11:29:03.541Z,7.95
2023-03-26T11:31:44.838Z,8.10
2023-03-26T11:34:16.918Z,8.30
2023-03-26T11:36:48.512Z,8.47
2023-03-26T11:39:22.666Z,8.57
2023-03-26T11:41:53.598Z,8.86
2023-03-26T11:44:25.287Z,9.01
2023-03-26T11:47:01.325Z,9.12
2023-03-26T11:49:30.417Z,9.08
2023-03-26T11:51:59.069Z,9.10
2023-03-26T11:54:27.855Z,9.11
2023-03-26T11:57:04.793Z,9.18
2023-03-26T11:59:53.217Z,9.25
2023-03-26T12:02:32.356Z,9.25
2023-03-26T12:05:19.308Z,9.26
2023-03-26T12:07:51.215Z,9.34
2023-03-26T12:10:24.801Z,9.52
2023-03-26T12:12:54.814Z,9.43
2023-03-26T12:15:23.158Z,9.43
2023-03-26T12:17:56.470Z,9.56
2023-03-26T12:20:34.709Z,9.52
2023-03-26T12:23:04.114Z,9.54
2023-03-26T12:25:33.326Z,9.63
2023-03-26T12:28:03.420Z,9.76
2023-03-26T12:30:33.844Z,9.84
2023-03-26T12:33:07.056Z,9.85
2023-03-26T12:35:36.862Z,9.86
2023-03-26T12:38:23.401Z,9.82
2023-03-26T12:41:05.950Z,9.91
2023-03-26T12:44:55.667Z,9.94
2023-03-26T12:47:55.672Z,10.25
2023-03-26T12:49:20.303Z,10.45
2023-03-26T12:51:52.780Z,10.38
2023-03-26T12:54:35.676Z,10.40
2023-03-26T12:57:21.142Z,10.44
2023-03-26T13:00:09.220Z,10.65
2023-03-26T13:03:00.064Z,10.51
2023-03-26T13:05:40.899Z,10.49
2023-03-26T13:08:42.107Z,10.60
2023-03-26T13:11:19.286Z,10.61
2023-03-26T13:14:01.889Z,10.68
2023-03-26T13:16:37.338Z,10.64
2023-03-26T13:19:11.110Z,10.60
2023-03-26T13:21:53.107Z,10.59
2023-03-26T13:24:35.653Z,10.57
2023-03-26T13:27:18.034Z,10.41
2023-03-26T13:29:56.986Z,10.35
2023-03-26T13:32:38.110Z,10.37
2023-03-26T13:35:16.801Z,10.42
2023-03-26T13:37:52.183Z,10.41
2023-03-26T13:40:27.787Z,10.64
2023-03-26T13:43:15.396Z,10.80
2023-03-26T13:45:53.987Z,10.66
2023-03-26T13:48:26.954Z,10.57
2023-03-26T13:51:02.681Z,10.43
2023-03-26T13:53:38.857Z,10.41
2023-03-26T13:56:09.417Z,10.58
2023-03-26T13:58:39.606Z,10.55
2023-03-26T14:01:10.870Z,10.47
2023-03-26T14:03:51.994Z,10.60
2023-03-26T14:06:33.938Z,10.47
2023-03-26T14:09:08.102Z,10.44
2023-03-26T14:11:58.655Z,10.49
2023-03-26T14:14:29.722Z,10.53
2023-03-26T14:17:02.924Z,10.46
2023-03-26T14:19:55.617Z,10.56
2023-03-26T14:22:35.220Z,10.70
2023-03-26T14:25:20.703Z,10.74
2023-03-26T14:28:06.403Z,10.79
2023-03-26T14:30:50.118Z,10.74
2023-03-26T14:33:34.179Z,10.88
2023-03-26T14:36:12.307Z,10.90
2023-03-26T14:39:03.975Z,11.12
2023-03-26T14:41:44.530Z,11.14
2023-03-26T14:44:48.177Z,11.16
2023-03-26T14:47:18.430Z,11.13
2023-03-26T14:50:35.786Z,11.02
2023-03-26T14:53:12.894Z,10.98
2023-03-26T14:56:09.649Z,11.05
2023-03-26T14:59:10.035Z,11.07
2023-03-26T15:02:12.567Z,11.02
2023-03-26T15:05:20.284Z,10.92
2023-03-26T15:08:22.691Z,10.90
2023-03-26T15:11:18.440Z,10.85
2023-03-26T15:14:00.929Z,10.91
2023-03-26T15:17:00.424Z,10.87
2023-03-26T15:19:56.045Z,10.91
2023-03-26T15:22:59.427Z,10.86
2023-03-26T15:25:52.907Z,10.87
2023-03-26T15:28:53.478Z,10.86
2023-03-26T15:31:48.019Z,10.79
2023-03-26T15:34:58.352Z,10.73
2023-03-26T15:38:02.751Z,10.78
2023-03-26T15:40:41.668Z,10.70
2023-03-26T15:43:13.159Z,10.67
2023-03-26T15:45:45.952Z,10.69
2023-03-26T15:48:39.071Z,10.67
2023-03-26T15:51:47.020Z,10.68
2023-03-26T15:54:24.167Z,10.57
2023-03-26T15:57:08.892Z,10.58
2023-03-26T15:59:44.177Z,10.57
2023-03-26T16:02:26.140Z,10.53
2023-03-26T16:04:57.421Z,10.48
2023-03-26T16:07:47.138Z,10.44
2023-03-26T16:10:22.834Z,10.47
2023-03-26T16:13:15.601Z,10.45
2023-03-26T16:15:44.298Z,10.45
2023-03-26T16:18:31.297Z,10.42
2023-03-26T16:21:34.929Z,10.40
2023-03-26T16:24:31.866Z,10.33
2023-03-26T16:27:05.292Z,10.27
2023-03-26T16:29:34.210Z,10.23
2023-03-26T16:32:28.578Z,10.23
2023-03-26T16:35:00.191Z,10.18
2023-03-26T16:37:39.748Z,10.03
2023-03-26T16:40:35.295Z,10.02
2023-03-26T16:43:34.612Z,9.87
2023-03-26T16:46:09.484Z,9.75
2023-03-26T16:48:46.068Z,9.74
2023-03-26T16:51:23.978Z,9.70
2023-03-26T16:54:04.868Z,9.75
2023-03-26T16:56:42.949Z,9.81
2023-03-26T16:59:39.451Z,9.70
2023-03-26T17:02:22.044Z,9.69
2023-03-26T17:04:54.946Z,9.63
2023-03-26T17:07:30.525Z,9.54
2023-03-26T17:10:11.637Z,9.48
2023-03-26T17:12:43.905Z,9.52
2023-03-26T17:15:25.297Z,9.47
2023-03-26T17:18:03.430Z,9.45
2023-03-26T17:20:38.538Z,9.37
2023-03-26T17:23:19.505Z,9.35
2023-03-26T17:26:03.795Z,9.32
2023-03-26T17:28:45.899Z,9.27
2023-03-26T17:31:21.169Z,9.24
2023-03-26T17:33:49.789Z,9.24
2023-03-26T17:36:31.523Z,9.18
2023-03-26T17:39:19.533Z,9.14
2023-03-26T17:41:56.040Z,9.11
2023-03-26T17:44:43.236Z,9.10
2023-03-26T17:47:35.695Z,9.07
2023-03-26T17:50:13.489Z,9.09
2023-03-26T17:52:55.586Z,9.10
2023-03-26T17:55:30.415Z,9.07
2023-03-26T17:58:01.154Z,9.06
2023-03-26T18:00:32.259Z,9.04
2023-03-26T18:03:03.674Z,9.03
2023-03-26T18:05:32.072Z,9.02
2023-03-26T18:08:21.631Z,9.05
2023-03-26T18:11:34.902Z,8.99
2023-03-26T18:14:31.198Z,9.01
2023-03-26T18:17:01.050Z,8.98
2023-03-26T18:19:31.830Z,8.91
2023-03-26T18:22:04.588Z,8.89
2023-03-26T18:24:37.211Z,8.88
2023-03-26T18:27:09.604Z,8.89
2023-03-26T18:29:44.729Z,8.86
2023-03-26T18:32:22.160Z,8.84
2023-03-26T18:34:52.455Z,8.85
2023-03-26T18:37:23.007Z,8.85
2023-03-26T18:40:11.633Z,8.79
2023-03-26T18:42:41.864Z,8.86
2023-03-26T18:45:28.898Z,8.86
2023-03-26T18:47:59.211Z,8.81
2023-03-26T18:50:29.983Z,8.78
2023-03-26T18:53:00.343Z,8.74
2023-03-26T18:55:29.761Z,8.75
2023-03-26T18:57:57.699Z,8.65
2023-03-26T19:00:30.311Z,8.61
2023-03-26T19:03:04.510Z,8.60
2023-03-26T19:05:35.016Z,8.58
2023-03-26T19:08:05.400Z,8.53
2023-03-26T19:10:34.197Z,8.52
2023-03-26T19:13:03.218Z,8.57
2023-03-26T19:15:34.123Z,8.44
2023-03-26T19:18:07.304Z,8.41
2023-03-26T19:20:41.257Z,8.38
2023-03-26T19:23:14.373Z,8.25
2023-03-26T19:25:44.712Z,8.12
2023-03-26T19:28:18.377Z,8.11
2023-03-26T19:30:47.629Z,8.09
2023-03-26T19:33:18.307Z,8.04
2023-03-26T19:35:51.691Z,8.04
2023-03-26T19:38:25.442Z,8.02
2023-03-26T19:40:55.812Z,8.03
2023-03-26T19:43:24.139Z,7.99
2023-03-26T19:45:59.624Z,7.97
2023-03-26T19:51:18.597Z,7.89
2023-03-26T19:51:24.256Z,7.79
2023-03-26T19:53:56.412Z,7.79
2023-03-26T19:56:24.346Z,7.76
2023-03-26T19:58:52.430Z,7.78
2023-03-26T20:01:23.720Z,7.72
2023-03-26T20:03:53.729Z,7.74
2023-03-26T20:06:34.076Z,7.72
2023-03-26T20:09:10.100Z,7.73
2023-03-26T20:11:39.652Z,7.60
2023-03-26T20:14:14.391Z,7.54
2023-03-26T20:16:45.433Z,7.43
2023-03-26T20:19:13.886Z,7.36
2023-03-26T20:21:42.246Z,7.27
2023-03-26T20:24:14.523Z,7.24
2023-03-26T20:26:42.572Z,7.28
2023-03-26T20:29:11.548Z,7.14
2023-03-26T20:31:41.318Z,7.06
2023-03-26T20:34:16.560Z,6.97
2023-03-26T20:36:45.389Z,6.92
2023-03-26T20:39:13.348Z,7.01
2023-03-26T20:41:45.880Z,6.96
2023-03-26T20:44:16.469Z,6.93
2023-03-26T20:46:44.327Z,6.84
2023-03-26T20:49:14.919Z,6.89
2023-03-26T20:51:44.457Z,6.76
2023-03-26T20:54:17.618Z,6.71
2023-03-26T20:56:47.513Z,6.73
2023-03-26T20:59:19.200Z,6.67
2023-03-26T21:01:48.483Z,6.57
2023-03-26T21:04:19.222Z,6.52
2023-03-26T21:06:47.275Z,6.49
2023-03-26T21:09:17.652Z,6.52
2023-03-26T21:11:54.661Z,6.56
2023-03-26T21:14:26.185Z,6.59
2023-03-26T21:16:54.840Z,6.52
2023-03-26T21:19:24.605Z,6.56
2023-03-26T21:22:03.360Z,6.52
2023-03-26T21:24:45.076Z,6.52
2023-03-26T21:27:26.071Z,6.52
2023-03-26T21:29:55.040Z,6.44
2023-03-26T21:32:23.578Z,6.44
2023-03-26T21:37:25.151Z,6.24
2023-03-26T21:39:53.402Z,6.29
2023-03-26T21:42:21.586Z,6.36
2023-03-26T21:44:49.881Z,6.39
2023-03-26T21:47:18.022Z,6.42
2023-03-26T21:49:46.129Z,6.39
2023-03-26T21:52:15.668Z,6.37
2023-03-26T21:54:43.873Z,6.38
2023-03-26T21:57:27.121Z,6.29
2023-03-26T22:00:08.177Z,6.30
2023-03-26T22:02:47.530Z,6.35
2023-03-26T22:05:18.723Z,6.25
2023-03-26T22:07:53.773Z,6.23
2023-03-26T22:10:21.415Z,6.20
2023-03-26T22:12:49.410Z,6.17
2023-03-26T22:15:19.106Z,6.09
2023-03-26T22:17:53.586Z,5.97
2023-03-26T22:20:24.592Z,5.98
2023-03-26T22:22:55.071Z,5.99
2023-03-26T22:25:23.194Z,5.89
2023-03-26T22:27:52.618Z,5.99
2023-03-26T22:30:21.774Z,5.99
2023-03-26T22:32:50.136Z,6.02
2023-03-26T22:35:17.994Z,6.06
2023-03-26T22:37:45.628Z,5.86
2023-03-26T22:40:14.706Z,5.87
2023-03-26T22:42:42.856Z,5.78
2023-03-26T22:45:11.427Z,5.61
2023-03-26T22:47:40.078Z,5.71
2023-03-26T22:50:09.388Z,5.64
2023-03-26T22:52:37.752Z,5.71
2023-03-26T22:55:05.912Z,5.68
2023-03-26T22:57:34.994Z,5.55
2023-03-26T23:00:13.455Z,5.39
2023-03-26T23:02:41.303Z,5.50
2023-03-26T23:05:10.656Z,5.48
2023-03-26T23:07:38.453Z,5.42
2023-03-26T23:10:07.639Z,5.47
2023-03-26T23:12:36.864Z,5.48
2023-03-26T23:15:05.239Z,5.45
2023-03-26T23:17:35.038Z,5.54
2023-03-26T23:20:06.049Z,5.57
2023-03-26T23:22:35.260Z,5.57
2023-03-26T23:25:03.248Z,5.57
2023-03-26T23:27:30.941Z,5.52
2023-03-26T23:30:01.234Z,5.50
2023-03-26T23:32:29.230Z,5.06
2023-03-26T23:34:56.840Z,5.23
2023-03-26T23:37:24.596Z,5.35
2023-03-26T23:39:52.962Z,5.15
2023-03-26T23:42:28.475Z,5.11
2023-03-26T23:44:57.514Z,5.10
2023-03-26T23:47:27.065Z,5.16
2023-03-26T23:49:54.741Z,5.09
2023-03-26T23:52:22.404Z,5.15
2023-03-26T23:54:50.057Z,5.15
2023-03-26T23:57:18.395Z,5.24
2023-03-26T23:59:46.118Z,5.21
